Time,TemperatureF,DewpointF,PressureIn,WindDirection,WindDirectionDegrees,WindSpeedMPH,WindSpeedGustMPH,Humidity,HourlyPrecipIn,Conditions,Clouds,dailyrainin,SoftwareType,DateUTC
2013-09-06 00:01:00,57.4,50.6,30.14,NNE,27,0.0,0.0,78,0.00,,CLR,0.00,VWS V14.01,2013-09-06 04:01:00,
2013-09-06 00:03:00,57.4,50.3,30.14,NNE,21,0.0,0.0,77,0.00,,CLR,0.00,VWS V14.01,2013-09-06 04:03:00,
2013-09-06 00:06:00,57.4,50.6,30.14,ENE,77,0.0,0.0,78,0.00,,CLR,0.00,VWS V14.01,2013-09-06 04:06:00,
2013-09-06 00:11:00,57.1,50.7,30.14,West,280,0.0,0.0,79,0.00,,CLR,0.00,VWS V14.01,2013-09-06 04:11:00,
2013-09-06 00:16:00,57.0,50.2,30.14,WSW,245,0.0,0.0,78,0.00,,CLR,0.00,VWS V14.01,2013-09-06 04:16:00,
2013-09-06 00:21:00,57.4,50.3,30.14,NW,322,0.0,3.0,77,0.00,,CLR,0.00,VWS V14.01,2013-09-06 04:21:00,
2013-09-06 00:26:00,57.9,50.0,30.15,NE,49,0.0,0.0,75,0.00,,CLR,0.00,VWS V14.01,2013-09-06 04:26:00,
2013-09-06 00:31:00,58.1,50.2,30.15,ENE,67,0.0,3.0,75,0.00,,CLR,0.00,VWS V14.01,2013-09-06 04:31:00,
2013-09-06 00:36:00,58.2,50.3,30.15,East,92,0.0,0.0,75,0.00,,CLR,0.00,VWS V14.01,2013-09-06 04:36:00,
2013-09-06 00:42:00,57.8,50.3,30.15,WNW,287,0.0,1.0,76,0.00,,CLR,0.00,VWS V14.01,2013-09-06 04:42:00,
2013-09-06 00:47:00,57.5,50.4,30.16,East,93,0.0,1.0,77,0.00,,CLR,0.00,VWS V14.01,2013-09-06 04:47:00,
2013-09-06 00:52:00,57.2,50.4,30.16,NNW,332,0.0,0.0,78,0.00,,CLR,0.00,VWS V14.01,2013-09-06 04:52:00,
2013-09-06 00:57:00,57.0,50.2,30.17,NNW,346,0.0,2.0,78,0.00,,CLR,0.00,VWS V14.01,2013-09-06 04:57:00,
2013-09-06 01:02:00,57.1,50.3,30.17,West,267,0.0,1.0,78,0.00,,CLR,0.00,VWS V14.01,2013-09-06 05:02:00,
2013-09-06 01:07:00,57.2,49.7,30.17,East,80,0.0,4.0,76,0.00,,CLR,0.00,VWS V14.01,2013-09-06 05:07:00,
2013-09-06 01:12:00,57.2,49.7,30.17,NE,41,0.0,2.0,76,0.00,,CLR,0.00,VWS V14.01,2013-09-06 05:12:00,
2013-09-06 01:17:00,57.2,49.4,30.17,ENE,63,0.0,0.0,75,0.00,,CLR,0.00,VWS V14.01,2013-09-06 05:17:00,
2013-09-06 01:22:00,57.1,49.3,30.17,ESE,112,0.0,1.0,75,0.00,,CLR,0.00,VWS V14.01,2013-09-06 05:22:00,
2013-09-06 01:27:00,56.9,49.4,30.17,SE,134,0.0,0.0,76,0.00,,CLR,0.00,VWS V14.01,2013-09-06 05:27:00,
2013-09-06 01:32:00,56.7,49.2,30.17,WNW,287,0.0,0.0,76,0.00,,CLR,0.00,VWS V14.01,2013-09-06 05:32:00,
2013-09-06 01:38:00,56.6,48.8,30.18,ESE,105,0.0,0.0,75,0.00,,CLR,0.00,VWS V14.01,2013-09-06 05:38:00,
2013-09-06 01:43:00,56.3,48.8,30.18,East,83,0.0,0.0,76,0.00,,CLR,0.00,VWS V14.01,2013-09-06 05:43:00,
2013-09-06 01:48:00,56.1,48.3,30.18,North,9,0.0,0.0,75,0.00,,CLR,0.00,VWS V14.01,2013-09-06 05:48:00,
2013-09-06 01:53:00,55.9,48.1,30.18,NNE,26,0.0,1.0,75,0.00,,CLR,0.00,VWS V14.01,2013-09-06 05:53:00,
2013-09-06 01:58:00,55.9,48.1,30.18,East,80,0.0,2.0,75,0.00,,CLR,0.00,VWS V14.01,2013-09-06 05:58:00,
2013-09-06 02:03:00,55.7,47.5,30.18,NNW,343,0.0,0.0,74,0.00,,CLR,0.00,VWS V14.01,2013-09-06 06:03:00,
2013-09-06 02:08:00,55.6,47.5,30.18,East,87,0.0,5.0,74,0.00,,SCT060,0.00,VWS V14.01,2013-09-06 06:08:00,
2013-09-06 02:13:00,55.6,47.1,30.18,ENE,60,0.0,6.0,73,0.00,,SCT060,0.00,VWS V14.01,2013-09-06 06:13:00,
2013-09-06 02:18:00,55.6,46.4,30.18,ENE,72,0.0,3.0,71,0.00,,SCT060,0.00,VWS V14.01,2013-09-06 06:18:00,
2013-09-06 02:23:00,55.6,46.4,30.18,ESE,106,0.0,4.0,71,0.00,,SCT060,0.00,VWS V14.01,2013-09-06 06:23:00,
2013-09-06 02:28:00,55.5,45.9,30.18,ENE,65,0.0,2.0,70,0.00,,SCT060,0.00,VWS V14.01,2013-09-06 06:28:00,
2013-09-06 02:34:00,55.4,45.8,30.18,ENE,73,0.0,5.0,70,0.00,,SCT060,0.00,VWS V14.01,2013-09-06 06:34:00,
2013-09-06 02:39:00,55.1,46.2,30.18,East,89,0.0,0.0,72,0.00,,SCT060,0.00,VWS V14.01,2013-09-06 06:39:00,
2013-09-06 02:44:00,54.8,46.0,30.18,ENE,73,0.0,0.0,72,0.00,,SCT060,0.00,VWS V14.01,2013-09-06 06:44:00,
2013-09-06 02:49:00,54.6,46.1,30.18,NE,34,0.0,0.0,73,0.00,,SCT060,0.00,VWS V14.01,2013-09-06 06:49:00,
2013-09-06 02:54:00,54.4,45.9,30.18,NNE,27,0.0,1.0,73,0.00,,SCT060,0.00,VWS V14.01,2013-09-06 06:54:00,
2013-09-06 02:59:00,54.5,46.0,30.18,ENE,71,0.0,1.0,73,0.00,,SCT060,0.00,VWS V14.01,2013-09-06 06:59:00,
2013-09-06 03:04:00,54.3,46.2,30.18,ESE,110,0.0,0.0,74,0.00,,SCT060,0.00,VWS V14.01,2013-09-06 07:04:00,
2013-09-06 03:09:00,53.7,46.7,30.18,ESE,122,0.0,0.0,77,0.00,,CLR,0.00,VWS V14.01,2013-09-06 07:09:00,
2013-09-06 03:14:00,53.1,46.1,30.18,ESE,123,0.0,0.0,77,0.00,,CLR,0.00,VWS V14.01,2013-09-06 07:14:00,
2013-09-06 03:19:00,52.7,46.0,30.19,ESE,123,0.0,0.0,78,0.00,,CLR,0.00,VWS V14.01,2013-09-06 07:19:00,
2013-09-06 03:24:00,52.7,46.0,30.18,NW,316,0.0,0.0,78,0.00,,CLR,0.00,VWS V14.01,2013-09-06 07:24:00,
2013-09-06 03:29:00,52.8,45.8,30.19,NNE,20,0.0,0.0,77,0.00,,CLR,0.00,VWS V14.01,2013-09-06 07:29:00,
2013-09-06 03:35:00,52.7,45.7,30.19,NNW,340,0.0,0.0,77,0.00,,CLR,0.00,VWS V14.01,2013-09-06 07:35:00,
2013-09-06 03:40:00,52.6,45.6,30.18,NNW,335,0.0,0.0,77,0.00,,CLR,0.00,VWS V14.01,2013-09-06 07:40:00,
2013-09-06 03:45:00,52.6,46.0,30.19,WNW,300,0.0,0.0,78,0.00,,CLR,0.00,VWS V14.01,2013-09-06 07:45:00,
2013-09-06 03:50:00,52.4,46.1,30.18,WNW,285,0.0,0.0,79,0.00,,CLR,0.00,VWS V14.01,2013-09-06 07:50:00,
2013-09-06 03:55:00,52.1,46.1,30.19,WNW,285,0.0,0.0,80,0.00,,CLR,0.00,VWS V14.01,2013-09-06 07:55:00,
2013-09-06 04:00:00,51.8,46.2,30.18,WNW,285,0.0,0.0,81,0.00,,CLR,0.00,VWS V14.01,2013-09-06 08:00:00,
2013-09-06 04:05:00,51.4,46.1,30.18,WNW,285,0.0,0.0,82,0.00,,CLR,0.00,VWS V14.01,2013-09-06 08:05:00,
2013-09-06 04:10:00,50.9,46.2,30.19,WNW,285,0.0,0.0,84,0.00,,CLR,0.00,VWS V14.01,2013-09-06 08:10:00,
2013-09-06 04:15:00,50.5,46.2,30.18,NW,305,0.0,0.0,85,0.00,,CLR,0.00,VWS V14.01,2013-09-06 08:15:00,
2013-09-06 04:20:00,50.3,46.0,30.19,WNW,298,0.0,0.0,85,0.00,,CLR,0.00,VWS V14.01,2013-09-06 08:20:00,
2013-09-06 04:25:00,50.5,45.8,30.19,WNW,297,0.0,0.0,84,0.00,,CLR,0.00,VWS V14.01,2013-09-06 08:25:00,
2013-09-06 04:30:00,50.8,45.8,30.19,WNW,297,0.0,0.0,83,0.00,,CLR,0.00,VWS V14.01,2013-09-06 08:30:00,
2013-09-06 04:35:00,50.8,45.8,30.19,West,278,0.0,0.0,83,0.00,,CLR,0.00,VWS V14.01,2013-09-06 08:35:00,
2013-09-06 04:41:00,50.4,46.1,30.19,SE,127,0.0,0.0,85,0.00,,CLR,0.00,VWS V14.01,2013-09-06 08:41:00,
2013-09-06 04:46:00,49.8,45.8,30.20,SE,132,0.0,0.0,86,0.00,,CLR,0.00,VWS V14.01,2013-09-06 08:46:00,
2013-09-06 04:51:00,49.9,45.3,30.20,North,6,0.0,0.0,84,0.00,,CLR,0.00,VWS V14.01,2013-09-06 08:51:00,
2013-09-06 04:56:00,50.5,45.2,30.20,NW,321,0.0,0.0,82,0.00,,CLR,0.00,VWS V14.01,2013-09-06 08:56:00,
2013-09-06 05:01:00,50.4,45.1,30.20,NW,321,0.0,0.0,82,0.00,,CLR,0.00,VWS V14.01,2013-09-06 09:01:00,
2013-09-06 05:06:00,50.2,45.2,30.20,ESE,103,0.0,0.0,83,0.00,,CLR,0.00,VWS V14.01,2013-09-06 09:06:00,
2013-09-06 05:11:00,49.6,45.3,30.20,ESE,103,0.0,0.0,85,0.00,,CLR,0.00,VWS V14.01,2013-09-06 09:11:00,
2013-09-06 05:16:00,49.7,44.8,30.20,ESE,103,0.0,0.0,83,0.00,,CLR,0.00,VWS V14.01,2013-09-06 09:16:00,
2013-09-06 05:21:00,49.8,44.8,30.20,ESE,103,0.0,0.0,83,0.00,,CLR,0.00,VWS V14.01,2013-09-06 09:21:00,
2013-09-06 05:26:00,49.4,45.1,30.20,SE,131,0.0,0.0,85,0.00,,CLR,0.00,VWS V14.01,2013-09-06 09:26:00,
2013-09-06 05:31:00,48.4,45.0,30.20,SE,131,0.0,0.0,88,0.00,,CLR,0.00,VWS V14.01,2013-09-06 09:31:00,
2013-09-06 05:36:00,48.1,45.3,30.20,ESE,103,0.0,0.0,90,0.00,,CLR,0.00,VWS V14.01,2013-09-06 09:36:00,
2013-09-06 05:41:00,48.3,45.2,30.20,ESE,103,0.0,0.0,89,0.00,,CLR,0.00,VWS V14.01,2013-09-06 09:41:00,
2013-09-06 05:47:00,48.4,44.7,30.20,ESE,103,0.0,0.0,87,0.00,,CLR,0.00,VWS V14.01,2013-09-06 09:47:00,
2013-09-06 05:52:00,48.6,44.3,30.20,ESE,103,0.0,0.0,85,0.00,,CLR,0.00,VWS V14.01,2013-09-06 09:52:00,
2013-09-06 05:57:00,48.5,44.2,30.21,ESE,103,0.0,0.0,85,0.00,,CLR,0.00,VWS V14.01,2013-09-06 09:57:00,
2013-09-06 06:02:00,48.4,44.7,30.21,ESE,103,0.0,0.0,87,0.00,,CLR,0.00,VWS V14.01,2013-09-06 10:02:00,
2013-09-06 06:07:00,47.6,44.5,30.21,ESE,113,0.0,0.0,89,0.00,,CLR,0.00,VWS V14.01,2013-09-06 10:07:00,
2013-09-06 06:12:00,47.1,44.6,30.21,ESE,113,0.0,0.0,91,0.00,,CLR,0.00,VWS V14.01,2013-09-06 10:12:00,
2013-09-06 06:17:00,47.3,44.8,30.21,ESE,113,0.0,0.0,91,0.00,,CLR,0.00,VWS V14.01,2013-09-06 10:17:00,
2013-09-06 06:22:00,47.4,44.3,30.21,ESE,113,0.0,0.0,89,0.00,,CLR,0.00,VWS V14.01,2013-09-06 10:22:00,
2013-09-06 06:27:00,47.4,44.3,30.21,ESE,113,0.0,0.0,89,0.00,,CLR,0.00,VWS V14.01,2013-09-06 10:27:00,
2013-09-06 06:32:00,47.8,44.4,30.22,East,99,0.0,0.0,88,0.00,,CLR,0.00,VWS V14.01,2013-09-06 10:32:00,
2013-09-06 06:37:00,48.1,44.4,30.21,East,99,0.0,0.0,87,0.00,,CLR,0.00,VWS V14.01,2013-09-06 10:37:00,
2013-09-06 06:42:00,48.3,44.3,30.22,East,99,0.0,0.0,86,0.00,,CLR,0.00,VWS V14.01,2013-09-06 10:42:00,
2013-09-06 06:47:00,48.3,44.0,30.22,East,99,0.0,0.0,85,0.00,,CLR,0.00,VWS V14.01,2013-09-06 10:47:00,
2013-09-06 06:53:00,48.2,44.2,30.22,East,99,0.0,0.0,86,0.00,,CLR,0.00,VWS V14.01,2013-09-06 10:53:00,
2013-09-06 06:58:00,47.5,44.1,30.22,ESE,105,0.0,0.0,88,0.00,,CLR,0.00,VWS V14.01,2013-09-06 10:58:00,
2013-09-06 07:03:00,47.4,44.6,30.22,ESE,105,0.0,0.0,90,0.00,,CLR,0.00,VWS V14.01,2013-09-06 11:03:00,
2013-09-06 07:08:00,48.2,45.7,30.22,ESE,105,0.0,0.0,91,0.00,,CLR,0.00,VWS V14.01,2013-09-06 11:08:00,
2013-09-06 07:13:00,49.2,45.8,30.22,ESE,105,0.0,0.0,88,0.00,,CLR,0.00,VWS V14.01,2013-09-06 11:13:00,
2013-09-06 07:18:00,49.6,46.5,30.22,ESE,105,0.0,0.0,89,0.00,,CLR,0.00,VWS V14.01,2013-09-06 11:18:00,
2013-09-06 07:23:00,50.3,47.2,30.23,ESE,105,0.0,0.0,89,0.00,,CLR,0.00,VWS V14.01,2013-09-06 11:23:00,
2013-09-06 07:28:00,50.4,47.0,30.23,ESE,105,0.0,0.0,88,0.00,,CLR,0.00,VWS V14.01,2013-09-06 11:28:00,
2013-09-06 07:33:00,51.0,47.6,30.23,ESE,105,0.0,0.0,88,0.00,,CLR,0.00,VWS V14.01,2013-09-06 11:33:00,
2013-09-06 07:38:00,51.5,47.8,30.23,ESE,105,0.0,0.0,87,0.00,,CLR,0.00,VWS V14.01,2013-09-06 11:38:00,
2013-09-06 07:43:00,52.6,48.2,30.23,ESE,105,0.0,0.0,85,0.00,,CLR,0.00,VWS V14.01,2013-09-06 11:43:00,
2013-09-06 07:48:00,52.0,47.0,30.23,SW,216,0.0,0.0,83,0.00,,CLR,0.00,VWS V14.01,2013-09-06 11:48:00,
2013-09-06 07:53:00,51.5,47.2,30.23,WNW,287,0.0,0.0,85,0.00,,CLR,0.00,VWS V14.01,2013-09-06 11:53:00,
2013-09-06 07:59:00,51.7,47.0,30.23,WNW,285,0.0,0.0,84,0.00,,CLR,0.00,VWS V14.01,2013-09-06 11:59:00,
2013-09-06 08:04:00,52.1,46.1,30.23,WNW,295,0.0,0.0,80,0.00,,CLR,0.00,VWS V14.01,2013-09-06 12:04:00,
2013-09-06 08:09:00,52.6,46.6,30.23,NW,315,0.0,0.0,80,0.00,,CLR,0.00,VWS V14.01,2013-09-06 12:09:00,
2013-09-06 08:14:00,53.0,46.0,30.24,NNW,330,0.0,0.0,77,0.00,,CLR,0.00,VWS V14.01,2013-09-06 12:14:00,
2013-09-06 08:19:00,53.7,46.7,30.23,ENE,77,0.0,1.0,77,0.00,,CLR,0.00,VWS V14.01,2013-09-06 12:19:00,
2013-09-06 08:24:00,54.1,47.1,30.24,East,93,0.0,1.0,77,0.00,,CLR,0.00,VWS V14.01,2013-09-06 12:24:00,
2013-09-06 08:29:00,54.6,47.9,30.24,East,91,0.0,3.0,78,0.00,,CLR,0.00,VWS V14.01,2013-09-06 12:29:00,
2013-09-06 08:34:00,55.1,47.3,30.24,NE,41,0.0,0.0,75,0.00,,CLR,0.00,VWS V14.01,2013-09-06 12:34:00,
2013-09-06 08:39:00,55.3,46.8,30.24,North,353,0.0,1.0,73,0.00,,CLR,0.00,VWS V14.01,2013-09-06 12:39:00,
2013-09-06 08:44:00,55.3,46.4,30.24,NW,315,0.0,1.0,72,0.00,,CLR,0.00,VWS V14.01,2013-09-06 12:44:00,
2013-09-06 08:49:00,55.3,46.1,30.24,NW,309,0.0,3.0,71,0.00,,CLR,0.00,VWS V14.01,2013-09-06 12:49:00,
2013-09-06 08:54:00,55.5,46.6,30.24,North,349,0.0,2.0,72,0.00,,CLR,0.00,VWS V14.01,2013-09-06 12:54:00,
2013-09-06 09:00:00,55.9,47.0,30.24,NNW,333,0.0,0.0,72,0.00,,CLR,0.00,VWS V14.01,2013-09-06 13:00:00,
2013-09-06 09:05:00,56.8,47.1,30.24,NW,324,0.0,0.0,70,0.00,,CLR,0.00,VWS V14.01,2013-09-06 13:05:00,
2013-09-06 09:10:00,57.1,46.7,30.24,NNW,337,0.0,0.0,68,0.00,,CLR,0.00,VWS V14.01,2013-09-06 13:10:00,
2013-09-06 09:15:00,57.6,47.5,30.24,NW,316,0.0,2.0,69,0.00,,CLR,0.00,VWS V14.01,2013-09-06 13:15:00,
2013-09-06 09:20:00,58.2,46.9,30.25,NW,310,0.0,0.0,66,0.00,,CLR,0.00,VWS V14.01,2013-09-06 13:20:00,
2013-09-06 09:25:00,58.4,46.7,30.25,WNW,296,0.0,3.0,65,0.00,,CLR,0.00,VWS V14.01,2013-09-06 13:25:00,
2013-09-06 09:30:00,59.0,47.3,30.25,NE,46,0.0,2.0,65,0.00,,CLR,0.00,VWS V14.01,2013-09-06 13:30:00,
2013-09-06 09:35:00,59.2,46.2,30.25,East,94,3.0,7.0,62,0.00,,CLR,0.00,VWS V14.01,2013-09-06 13:35:00,
2013-09-06 09:40:00,58.8,46.7,30.25,ENE,71,0.0,5.0,64,0.00,,CLR,0.00,VWS V14.01,2013-09-06 13:40:00,
2013-09-06 09:45:00,59.3,46.7,30.25,East,98,0.0,3.0,63,0.00,,CLR,0.00,VWS V14.01,2013-09-06 13:45:00,
2013-09-06 09:50:00,59.5,46.1,30.25,East,93,0.0,4.0,61,0.00,,CLR,0.00,VWS V14.01,2013-09-06 13:50:00,
2013-09-06 09:55:00,59.7,46.2,30.25,ENE,63,5.0,6.0,61,0.00,,CLR,0.00,VWS V14.01,2013-09-06 13:55:00,
2013-09-06 10:00:00,60.1,45.7,30.25,NNE,31,0.0,5.0,59,0.00,,CLR,0.00,VWS V14.01,2013-09-06 14:00:00,
2013-09-06 10:05:00,60.4,46.0,30.24,ENE,77,3.0,6.0,59,0.00,,CLR,0.00,VWS V14.01,2013-09-06 14:05:00,
2013-09-06 10:10:00,60.9,46.0,30.25,North,6,0.0,5.0,58,0.00,,CLR,0.00,VWS V14.01,2013-09-06 14:10:00,
2013-09-06 10:15:00,61.0,44.2,30.24,ENE,68,7.0,8.0,54,0.00,,CLR,0.00,VWS V14.01,2013-09-06 14:15:00,
2013-09-06 10:20:00,61.2,44.9,30.25,East,86,3.0,8.0,55,0.00,,CLR,0.00,VWS V14.01,2013-09-06 14:20:00,
2013-09-06 10:25:00,61.2,45.9,30.25,NE,41,0.0,8.0,57,0.00,,CLR,0.00,VWS V14.01,2013-09-06 14:25:00,
2013-09-06 10:30:00,61.8,44.5,30.25,East,101,0.0,5.0,53,0.00,,CLR,0.00,VWS V14.01,2013-09-06 14:30:00,
2013-09-06 10:35:00,62.3,45.0,30.25,East,101,0.0,3.0,53,0.00,,CLR,0.00,VWS V14.01,2013-09-06 14:35:00,
2013-09-06 10:40:00,62.4,44.6,30.25,ENE,73,0.0,5.0,52,0.00,,CLR,0.00,VWS V14.01,2013-09-06 14:40:00,
2013-09-06 10:45:00,62.8,44.4,30.25,East,84,1.0,2.0,51,0.00,,CLR,0.00,VWS V14.01,2013-09-06 14:45:00,
2013-09-06 10:50:00,62.3,44.0,30.25,East,89,0.0,0.0,51,0.00,,CLR,0.00,VWS V14.01,2013-09-06 14:50:00,
2013-09-06 10:55:00,62.8,43.9,30.25,ESE,105,0.0,0.0,50,0.00,,CLR,0.00,VWS V14.01,2013-09-06 14:55:00,
2013-09-06 11:00:00,62.6,45.2,30.25,East,93,1.0,2.0,53,0.00,,CLR,0.00,VWS V14.01,2013-09-06 15:00:00,
2013-09-06 11:05:00,62.7,43.8,30.25,North,1,3.0,3.0,50,0.00,,CLR,0.00,VWS V14.01,2013-09-06 15:05:00,
2013-09-06 11:10:00,63.9,45.4,30.25,NNW,346,0.0,1.0,51,0.00,,CLR,0.00,VWS V14.01,2013-09-06 15:10:00,
2013-09-06 11:15:00,64.1,46.1,30.25,ENE,68,0.0,0.0,52,0.00,,CLR,0.00,VWS V14.01,2013-09-06 15:15:00,
2013-09-06 11:20:00,64.4,45.9,30.24,SSE,155,0.0,1.0,51,0.00,,CLR,0.00,VWS V14.01,2013-09-06 15:20:00,
2013-09-06 11:25:00,64.5,44.9,30.25,NNW,338,1.0,2.0,49,0.00,,CLR,0.00,VWS V14.01,2013-09-06 15:25:00,
2013-09-06 11:30:00,63.8,43.8,30.24,WSW,257,0.0,1.0,48,0.00,,CLR,0.00,VWS V14.01,2013-09-06 15:30:00,
2013-09-06 11:35:00,64.7,44.0,30.25,ENE,75,1.0,1.0,47,0.00,,CLR,0.00,VWS V14.01,2013-09-06 15:35:00,
2013-09-06 11:40:00,64.9,44.2,30.24,ENE,78,3.0,8.0,47,0.00,,CLR,0.00,VWS V14.01,2013-09-06 15:40:00,
2013-09-06 11:46:00,64.0,43.4,30.24,East,99,4.0,4.0,47,0.00,,CLR,0.00,VWS V14.01,2013-09-06 15:46:00,
2013-09-06 11:51:00,63.8,43.8,30.24,ENE,70,0.0,4.0,48,0.00,,CLR,0.00,VWS V14.01,2013-09-06 15:51:00,
2013-09-06 11:56:00,63.8,43.2,30.24,SSW,195,0.0,1.0,47,0.00,,CLR,0.00,VWS V14.01,2013-09-06 15:56:00,
2013-09-06 12:01:00,64.4,43.2,30.24,NW,326,0.0,4.0,46,0.00,,CLR,0.00,VWS V14.01,2013-09-06 16:01:00,
2013-09-06 12:06:00,64.7,44.6,30.23,NE,54,3.0,6.0,48,0.00,,CLR,0.00,VWS V14.01,2013-09-06 16:06:00,
2013-09-06 12:11:00,65.1,42.7,30.23,NNE,28,2.0,5.0,44,0.00,,CLR,0.00,VWS V14.01,2013-09-06 16:11:00,
2013-09-06 12:16:00,64.9,45.8,30.23,NE,49,0.0,4.0,50,0.00,,CLR,0.00,VWS V14.01,2013-09-06 16:16:00,
2013-09-06 12:21:00,65.9,44.0,30.23,ESE,121,0.0,1.0,45,0.00,,CLR,0.00,VWS V14.01,2013-09-06 16:21:00,
2013-09-06 12:26:00,66.8,43.6,30.23,ENE,63,2.0,2.0,43,0.00,,CLR,0.00,VWS V14.01,2013-09-06 16:26:00,
2013-09-06 12:31:00,66.2,41.2,30.23,SE,125,0.0,2.0,40,0.00,,CLR,0.00,VWS V14.01,2013-09-06 16:31:00,
2013-09-06 12:36:00,65.7,43.8,30.23,WSW,245,0.0,2.0,45,0.00,,CLR,0.00,VWS V14.01,2013-09-06 16:36:00,
2013-09-06 12:41:00,66.1,42.4,30.23,WNW,283,3.0,5.0,42,0.00,,CLR,0.00,VWS V14.01,2013-09-06 16:41:00,
2013-09-06 12:46:00,66.6,42.2,30.23,NW,315,1.0,3.0,41,0.00,,CLR,0.00,VWS V14.01,2013-09-06 16:46:00,
2013-09-06 12:52:00,66.8,41.7,30.22,SW,235,0.0,0.0,40,0.00,,CLR,0.00,VWS V14.01,2013-09-06 16:52:00,
2013-09-06 12:57:00,67.2,42.7,30.22,NNW,348,0.0,6.0,41,0.00,,CLR,0.00,VWS V14.01,2013-09-06 16:57:00,
2013-09-06 13:02:00,67.0,42.5,30.22,WSW,250,0.0,3.0,41,0.00,,CLR,0.00,VWS V14.01,2013-09-06 17:02:00,
2013-09-06 13:07:00,67.9,45.2,30.22,NE,46,0.0,4.0,44,0.00,,CLR,0.00,VWS V14.01,2013-09-06 17:07:00,
2013-09-06 13:12:00,68.2,43.0,30.22,West,259,0.0,5.0,40,0.00,,CLR,0.00,VWS V14.01,2013-09-06 17:12:00,
2013-09-06 13:17:00,67.4,42.3,30.22,WNW,289,2.0,3.0,40,0.00,,CLR,0.00,VWS V14.01,2013-09-06 17:17:00,
2013-09-06 13:22:00,67.0,42.5,30.21,SW,232,0.0,1.0,41,0.00,,CLR,0.00,VWS V14.01,2013-09-06 17:22:00,
2013-09-06 13:27:00,67.5,43.0,30.21,NNW,346,0.0,1.0,41,0.00,,CLR,0.00,VWS V14.01,2013-09-06 17:27:00,
2013-09-06 13:32:00,68.7,45.9,30.21,East,86,7.0,7.0,44,0.00,,CLR,0.00,VWS V14.01,2013-09-06 17:32:00,
2013-09-06 13:37:00,67.3,43.5,30.21,ENE,72,1.0,5.0,42,0.00,,CLR,0.00,VWS V14.01,2013-09-06 17:37:00,
2013-09-06 13:42:00,67.6,44.3,30.21,ESE,108,0.0,4.0,43,0.00,,CLR,0.00,VWS V14.01,2013-09-06 17:42:00,
2013-09-06 13:47:00,68.3,43.1,30.20,WNW,297,0.0,3.0,40,0.00,,CLR,0.00,VWS V14.01,2013-09-06 17:47:00,
2013-09-06 13:52:00,69.2,46.4,30.20,SE,138,0.0,4.0,44,0.00,,CLR,0.00,VWS V14.01,2013-09-06 17:52:00,
2013-09-06 13:57:00,68.8,43.5,30.20,WNW,283,1.0,5.0,40,0.00,,CLR,0.00,VWS V14.01,2013-09-06 17:57:00,
2013-09-06 14:03:00,68.5,43.2,30.20,ESE,120,0.0,0.0,40,0.00,,CLR,0.00,VWS V14.01,2013-09-06 18:03:00,
2013-09-06 14:08:00,69.3,44.0,30.20,East,99,2.0,4.0,40,0.00,,CLR,0.00,VWS V14.01,2013-09-06 18:08:00,
2013-09-06 14:13:00,68.6,44.6,30.20,West,272,0.0,5.0,42,0.00,,CLR,0.00,VWS V14.01,2013-09-06 18:13:00,
2013-09-06 14:18:00,69.0,44.3,30.20,NW,319,0.0,3.0,41,0.00,,CLR,0.00,VWS V14.01,2013-09-06 18:18:00,
2013-09-06 14:23:00,68.7,42.1,30.19,ENE,64,0.0,5.0,38,0.00,,CLR,0.00,VWS V14.01,2013-09-06 18:23:00,
2013-09-06 14:28:00,68.1,42.9,30.19,NE,55,1.0,4.0,40,0.00,,CLR,0.00,VWS V14.01,2013-09-06 18:28:00,
2013-09-06 14:33:00,68.6,44.0,30.19,WNW,294,0.0,2.0,41,0.00,,CLR,0.00,VWS V14.01,2013-09-06 18:33:00,
2013-09-06 14:38:00,68.6,43.3,30.19,West,263,0.0,4.0,40,0.00,,CLR,0.00,VWS V14.01,2013-09-06 18:38:00,
2013-09-06 14:43:00,68.7,42.1,30.19,North,351,0.0,4.0,38,0.00,,CLR,0.00,VWS V14.01,2013-09-06 18:43:00,
2013-09-06 14:48:00,69.5,41.4,30.18,NW,309,0.0,2.0,36,0.00,,CLR,0.00,VWS V14.01,2013-09-06 18:48:00,
2013-09-06 14:53:00,69.6,42.2,30.18,SE,134,0.0,1.0,37,0.00,,CLR,0.00,VWS V14.01,2013-09-06 18:53:00,
2013-09-06 14:58:00,70.2,45.4,30.18,ENE,63,0.0,2.0,41,0.00,,CLR,0.00,VWS V14.01,2013-09-06 18:58:00,
2013-09-06 15:03:00,70.2,43.4,30.18,West,277,0.0,1.0,38,0.00,,CLR,0.00,VWS V14.01,2013-09-06 19:03:00,
2013-09-06 15:08:00,70.1,44.0,30.17,ENE,67,2.0,4.0,39,0.00,,CLR,0.00,VWS V14.01,2013-09-06 19:08:00,
2013-09-06 15:14:00,70.2,44.8,30.17,ESE,113,0.0,3.0,40,0.00,,CLR,0.00,VWS V14.01,2013-09-06 19:14:00,
2013-09-06 15:19:00,69.8,43.1,30.17,East,79,0.0,1.0,38,0.00,,CLR,0.00,VWS V14.01,2013-09-06 19:19:00,
2013-09-06 15:24:00,70.3,44.9,30.17,East,91,0.0,2.0,40,0.00,,CLR,0.00,VWS V14.01,2013-09-06 19:24:00,
2013-09-06 15:29:00,70.5,43.0,30.16,WNW,283,1.0,3.0,37,0.00,,CLR,0.00,VWS V14.01,2013-09-06 19:29:00,
2013-09-06 15:34:00,70.1,45.3,30.16,ESE,109,0.0,2.0,41,0.00,,CLR,0.00,VWS V14.01,2013-09-06 19:34:00,
2013-09-06 15:39:00,70.8,45.3,30.17,ESE,113,0.0,1.0,40,0.00,,CLR,0.00,VWS V14.01,2013-09-06 19:39:00,
2013-09-06 15:44:00,71.2,45.0,30.16,ESE,107,0.0,3.0,39,0.00,,CLR,0.00,VWS V14.01,2013-09-06 19:44:00,
2013-09-06 15:49:00,71.8,46.9,30.16,South,169,0.0,1.0,41,0.00,,CLR,0.00,VWS V14.01,2013-09-06 19:49:00,
2013-09-06 15:54:00,71.8,44.8,30.16,SW,226,0.0,1.0,38,0.00,,CLR,0.00,VWS V14.01,2013-09-06 19:54:00,
2013-09-06 15:59:00,70.9,44.0,30.16,SSW,201,0.0,3.0,38,0.00,,CLR,0.00,VWS V14.01,2013-09-06 19:59:00,
2013-09-06 16:04:00,71.4,45.2,30.15,SSE,165,0.0,5.0,39,0.00,,CLR,0.00,VWS V14.01,2013-09-06 20:04:00,
2013-09-06 16:09:00,72.3,46.7,30.15,East,89,0.0,1.0,40,0.00,,CLR,0.00,VWS V14.01,2013-09-06 20:09:00,
2013-09-06 16:15:00,71.3,45.8,30.15,NW,312,1.0,2.0,40,0.00,,CLR,0.00,VWS V14.01,2013-09-06 20:15:00,
2013-09-06 16:20:00,71.8,44.8,30.15,ESE,122,1.0,1.0,38,0.00,,CLR,0.00,VWS V14.01,2013-09-06 20:20:00,
2013-09-06 16:25:00,71.2,45.0,30.15,SE,124,0.0,6.0,39,0.00,,CLR,0.00,VWS V14.01,2013-09-06 20:25:00,
2013-09-06 16:30:00,70.6,45.1,30.15,WNW,290,2.0,2.0,40,0.00,,CLR,0.00,VWS V14.01,2013-09-06 20:30:00,
2013-09-06 16:35:00,70.4,44.3,30.15,West,276,0.0,2.0,39,0.00,,CLR,0.00,VWS V14.01,2013-09-06 20:35:00,
2013-09-06 16:40:00,71.1,46.2,30.14,SSE,167,0.0,0.0,41,0.00,,CLR,0.00,VWS V14.01,2013-09-06 20:40:00,
2013-09-06 16:45:00,72.2,45.9,30.15,West,273,0.0,1.0,39,0.00,,CLR,0.00,VWS V14.01,2013-09-06 20:45:00,
2013-09-06 16:50:00,71.1,44.9,30.14,NW,309,0.0,0.0,39,0.00,,CLR,0.00,VWS V14.01,2013-09-06 20:50:00,
2013-09-06 16:55:00,70.8,44.6,30.14,East,97,1.0,3.0,39,0.00,,CLR,0.00,VWS V14.01,2013-09-06 20:55:00,
2013-09-06 17:00:00,70.7,45.9,30.14,East,101,0.0,1.0,41,0.00,,CLR,0.00,VWS V14.01,2013-09-06 21:00:00,
2013-09-06 17:05:00,70.8,45.3,30.14,WNW,301,0.0,1.0,40,0.00,,CLR,0.00,VWS V14.01,2013-09-06 21:05:00,
2013-09-06 17:10:00,70.7,45.9,30.14,WNW,287,0.0,3.0,41,0.00,,CLR,0.00,VWS V14.01,2013-09-06 21:10:00,
2013-09-06 17:15:00,70.5,45.7,30.14,NNW,340,1.0,3.0,41,0.00,,CLR,0.00,VWS V14.01,2013-09-06 21:15:00,
2013-09-06 17:20:00,70.6,47.7,30.14,West,278,0.0,2.0,44,0.00,,CLR,0.00,VWS V14.01,2013-09-06 21:20:00,
2013-09-06 17:25:00,70.6,46.4,30.14,WNW,301,0.0,2.0,42,0.00,,CLR,0.00,VWS V14.01,2013-09-06 21:25:00,
2013-09-06 17:30:00,71.1,46.9,30.14,SW,221,0.0,0.0,42,0.00,,CLR,0.00,VWS V14.01,2013-09-06 21:30:00,
2013-09-06 17:35:00,71.1,46.2,30.14,SW,224,0.0,1.0,41,0.00,,CLR,0.00,VWS V14.01,2013-09-06 21:35:00,
2013-09-06 17:40:00,71.6,47.3,30.14,West,266,0.0,1.0,42,0.00,,CLR,0.00,VWS V14.01,2013-09-06 21:40:00,
2013-09-06 17:45:00,70.8,46.6,30.14,WNW,299,0.0,1.0,42,0.00,,CLR,0.00,VWS V14.01,2013-09-06 21:45:00,
2013-09-06 17:50:00,70.8,47.8,30.14,West,269,0.0,1.0,44,0.00,,CLR,0.00,VWS V14.01,2013-09-06 21:50:00,
2013-09-06 17:55:00,71.1,48.1,30.14,NW,319,0.0,1.0,44,0.00,,CLR,0.00,VWS V14.01,2013-09-06 21:55:00,
2013-09-06 18:00:00,71.1,45.6,30.14,ENE,64,0.0,1.0,40,0.00,,CLR,0.00,VWS V14.01,2013-09-06 22:00:00,
2013-09-06 18:05:00,70.5,47.6,30.14,WSW,252,1.0,1.0,44,0.00,,CLR,0.00,VWS V14.01,2013-09-06 22:05:00,
2013-09-06 18:10:00,70.8,47.2,30.14,WSW,257,0.0,1.0,43,0.00,,CLR,0.00,VWS V14.01,2013-09-06 22:10:00,
2013-09-06 18:15:00,70.7,47.7,30.13,SW,232,1.0,1.0,44,0.00,,CLR,0.00,VWS V14.01,2013-09-06 22:15:00,
2013-09-06 18:20:00,70.4,48.1,30.13,South,173,0.0,0.0,45,0.00,,CLR,0.00,VWS V14.01,2013-09-06 22:20:00,
2013-09-06 18:25:00,70.8,50.2,30.13,SE,139,0.0,0.0,48,0.00,,CLR,0.00,VWS V14.01,2013-09-06 22:25:00,
2013-09-06 18:30:00,70.7,48.3,30.13,SE,129,0.0,1.0,45,0.00,,CLR,0.00,VWS V14.01,2013-09-06 22:30:00,
2013-09-06 18:35:00,69.4,49.4,30.13,SE,143,0.0,0.0,49,0.00,,CLR,0.00,VWS V14.01,2013-09-06 22:35:00,
2013-09-06 18:40:00,68.5,51.2,30.13,SE,138,0.0,0.0,54,0.00,,CLR,0.00,VWS V14.01,2013-09-06 22:40:00,
2013-09-06 18:46:00,67.6,51.4,30.13,SE,139,1.0,1.0,56,0.00,,CLR,0.00,VWS V14.01,2013-09-06 22:46:00,
2013-09-06 18:51:00,66.8,50.1,30.13,SE,137,0.0,0.0,55,0.00,,CLR,0.00,VWS V14.01,2013-09-06 22:51:00,
2013-09-06 18:56:00,66.5,51.8,30.13,SE,136,0.0,0.0,59,0.00,,CLR,0.00,VWS V14.01,2013-09-06 22:56:00,
2013-09-06 19:01:00,66.1,50.9,30.14,SE,136,0.0,0.0,58,0.00,,CLR,0.00,VWS V14.01,2013-09-06 23:01:00,
2013-09-06 19:06:00,65.7,51.0,30.13,SE,135,0.0,0.0,59,0.00,,CLR,0.00,VWS V14.01,2013-09-06 23:06:00,
2013-09-06 19:11:00,65.2,52.3,30.13,SE,135,0.0,0.0,63,0.00,,CLR,0.00,VWS V14.01,2013-09-06 23:11:00,
2013-09-06 19:16:00,64.2,52.6,30.13,SE,136,0.0,0.0,66,0.00,,CLR,0.00,VWS V14.01,2013-09-06 23:16:00,
2013-09-06 19:21:00,62.7,53.2,30.13,SE,135,0.0,0.0,71,0.00,,CLR,0.00,VWS V14.01,2013-09-06 23:21:00,
2013-09-06 19:26:00,61.5,53.2,30.13,SE,136,0.0,0.0,74,0.00,,CLR,0.00,VWS V14.01,2013-09-06 23:26:00,
2013-09-06 19:31:00,60.5,52.9,30.13,SE,136,0.0,0.0,76,0.00,,CLR,0.00,VWS V14.01,2013-09-06 23:31:00,
2013-09-06 19:37:00,59.6,52.7,30.13,SE,136,0.0,0.0,78,0.00,,CLR,0.00,VWS V14.01,2013-09-06 23:37:00,
2013-09-06 19:42:00,58.8,52.0,30.13,SE,124,0.0,0.0,78,0.00,,CLR,0.00,VWS V14.01,2013-09-06 23:42:00,
2013-09-06 19:47:00,58.2,50.7,30.13,ESE,113,0.0,0.0,76,0.00,,CLR,0.00,VWS V14.01,2013-09-06 23:47:00,
2013-09-06 19:52:00,57.8,50.3,30.13,ESE,113,0.0,0.0,76,0.00,,CLR,0.00,VWS V14.01,2013-09-06 23:52:00,
2013-09-06 19:57:00,57.5,49.7,30.13,ESE,113,0.0,0.0,75,0.00,,CLR,0.00,VWS V14.01,2013-09-06 23:57:00,
2013-09-06 20:02:00,57.3,49.5,30.13,ESE,113,0.0,0.0,75,0.00,,CLR,0.00,VWS V14.01,2013-09-07 00:02:00,
2013-09-06 20:07:00,57.0,49.2,30.13,ESE,113,0.0,0.0,75,0.00,,CLR,0.00,VWS V14.01,2013-09-07 00:07:00,
2013-09-06 20:12:00,56.5,49.0,30.13,ESE,113,0.0,0.0,76,0.00,,CLR,0.00,VWS V14.01,2013-09-07 00:12:00,
2013-09-06 20:17:00,56.3,49.2,30.13,ESE,113,0.0,0.0,77,0.00,,CLR,0.00,VWS V14.01,2013-09-07 00:17:00,
2013-09-06 20:22:00,56.0,48.9,30.13,East,98,0.0,0.0,77,0.00,,CLR,0.00,VWS V14.01,2013-09-07 00:22:00,
2013-09-06 20:28:00,55.8,48.7,30.13,East,96,0.0,0.0,77,0.00,,CLR,0.00,VWS V14.01,2013-09-07 00:28:00,
2013-09-06 20:33:00,56.0,48.5,30.13,East,96,0.0,0.0,76,0.00,,CLR,0.00,VWS V14.01,2013-09-07 00:33:00,
2013-09-06 20:38:00,55.9,49.2,30.13,East,96,0.0,0.0,78,0.00,,CLR,0.00,VWS V14.01,2013-09-07 00:38:00,
2013-09-06 20:43:00,55.3,49.2,30.13,East,96,0.0,0.0,80,0.00,,CLR,0.00,VWS V14.01,2013-09-07 00:43:00,
2013-09-06 20:48:00,54.4,49.0,30.13,East,96,0.0,0.0,82,0.00,,CLR,0.00,VWS V14.01,2013-09-07 00:48:00,
2013-09-06 20:53:00,53.9,49.2,30.13,East,95,0.0,0.0,84,0.00,,CLR,0.00,VWS V14.01,2013-09-07 00:53:00,
2013-09-06 20:58:00,53.6,48.2,30.13,East,94,0.0,0.0,82,0.00,,CLR,0.00,VWS V14.01,2013-09-07 00:58:00,
2013-09-06 21:03:00,54.3,48.3,30.14,East,95,0.0,0.0,80,0.00,,CLR,0.00,VWS V14.01,2013-09-07 01:03:00,
2013-09-06 21:08:00,54.4,48.7,30.14,East,95,0.0,0.0,81,0.00,,CLR,0.00,VWS V14.01,2013-09-07 01:08:00,
2013-09-06 21:13:00,53.8,49.1,30.13,East,95,0.0,0.0,84,0.00,,CLR,0.00,VWS V14.01,2013-09-07 01:13:00,
2013-09-06 21:18:00,53.3,48.9,30.14,East,95,0.0,0.0,85,0.00,,CLR,0.00,VWS V14.01,2013-09-07 01:18:00,
2013-09-06 21:23:00,53.1,48.4,30.13,East,95,0.0,0.0,84,0.00,,CLR,0.00,VWS V14.01,2013-09-07 01:23:00,
2013-09-06 21:29:00,53.3,48.3,30.14,East,94,0.0,0.0,83,0.00,,CLR,0.00,VWS V14.01,2013-09-07 01:29:00,
2013-09-06 21:34:00,53.3,48.9,30.14,East,95,0.0,0.0,85,0.00,,CLR,0.00,VWS V14.01,2013-09-07 01:34:00,
2013-09-06 21:39:00,53.0,48.6,30.14,East,95,0.0,0.0,85,0.00,,CLR,0.00,VWS V14.01,2013-09-07 01:39:00,
2013-09-06 21:44:00,52.6,48.5,30.14,East,95,0.0,0.0,86,0.00,,CLR,0.00,VWS V14.01,2013-09-07 01:44:00,
2013-09-06 21:49:00,51.8,47.8,30.13,ESE,113,0.0,0.0,86,0.00,,CLR,0.00,VWS V14.01,2013-09-07 01:49:00,
2013-09-06 21:54:00,51.5,47.5,30.13,ESE,113,0.0,0.0,86,0.00,,CLR,0.00,VWS V14.01,2013-09-07 01:54:00,
2013-09-06 21:59:00,51.8,47.8,30.13,ESE,113,0.0,0.0,86,0.00,,CLR,0.00,VWS V14.01,2013-09-07 01:59:00,
2013-09-06 22:04:00,52.1,48.0,30.13,ESE,108,0.0,0.0,86,0.00,,CLR,0.00,VWS V14.01,2013-09-07 02:04:00,
2013-09-06 22:09:00,52.1,47.4,30.13,East,86,0.0,0.0,84,0.00,,CLR,0.00,VWS V14.01,2013-09-07 02:09:00,
2013-09-06 22:14:00,53.2,47.2,30.13,East,82,1.0,1.0,80,0.00,,CLR,0.00,VWS V14.01,2013-09-07 02:14:00,
2013-09-06 22:20:00,54.1,47.4,30.13,East,86,0.0,1.0,78,0.00,,CLR,0.00,VWS V14.01,2013-09-07 02:20:00,
2013-09-06 22:25:00,54.1,47.7,30.12,East,80,0.0,1.0,79,0.00,,CLR,0.00,VWS V14.01,2013-09-07 02:25:00,
2013-09-06 22:30:00,54.0,47.0,30.12,East,80,0.0,0.0,77,0.00,,CLR,0.00,VWS V14.01,2013-09-07 02:30:00,
2013-09-06 22:35:00,54.5,47.5,30.13,East,81,0.0,0.0,77,0.00,,CLR,0.00,VWS V14.01,2013-09-07 02:35:00,
2013-09-06 22:41:00,53.8,47.5,30.13,East,80,0.0,0.0,79,0.00,,CLR,0.00,VWS V14.01,2013-09-07 02:41:00,
2013-09-06 22:46:00,53.1,47.8,30.13,East,80,0.0,0.0,82,0.00,,CLR,0.00,VWS V14.01,2013-09-07 02:46:00,
2013-09-06 22:51:00,52.4,48.0,30.13,East,80,0.0,0.0,85,0.00,,CLR,0.00,VWS V14.01,2013-09-07 02:51:00,
2013-09-06 22:56:00,51.8,47.8,30.13,East,81,0.0,0.0,86,0.00,,CLR,0.00,VWS V14.01,2013-09-07 02:56:00,
2013-09-06 23:01:00,51.4,47.7,30.13,East,86,0.0,0.0,87,0.00,,CLR,0.00,VWS V14.01,2013-09-07 03:01:00,
2013-09-06 23:06:00,50.9,47.8,30.13,ESE,104,0.0,0.0,89,0.00,,CLR,0.00,VWS V14.01,2013-09-07 03:06:00,
2013-09-06 23:11:00,50.5,47.7,30.13,ESE,104,0.0,0.0,90,0.00,,CLR,0.00,VWS V14.01,2013-09-07 03:11:00,
2013-09-06 23:16:00,50.6,47.5,30.13,ESE,104,0.0,0.0,89,0.00,,CLR,0.00,VWS V14.01,2013-09-07 03:16:00,
2013-09-06 23:21:00,50.8,47.7,30.13,ESE,105,0.0,0.0,89,0.00,,CLR,0.00,VWS V14.01,2013-09-07 03:21:00,
2013-09-06 23:26:00,50.6,47.5,30.13,ESE,105,0.0,0.0,89,0.00,,CLR,0.00,VWS V14.01,2013-09-07 03:26:00,
2013-09-06 23:32:00,50.5,47.7,30.13,ESE,104,0.0,0.0,90,0.00,,CLR,0.00,VWS V14.01,2013-09-07 03:32:00,
2013-09-06 23:37:00,50.6,47.8,30.13,ESE,108,0.0,0.0,90,0.00,,CLR,0.00,VWS V14.01,2013-09-07 03:37:00,
2013-09-06 23:42:00,50.6,47.5,30.13,ESE,112,0.0,0.0,89,0.00,,CLR,0.00,VWS V14.01,2013-09-07 03:42:00,
2013-09-06 23:47:00,50.5,47.4,30.13,ESE,112,0.0,0.0,89,0.00,,CLR,0.00,VWS V14.01,2013-09-07 03:47:00,
2013-09-06 23:52:00,50.2,47.1,30.13,ESE,112,0.0,0.0,89,0.00,,CLR,0.00,VWS V14.01,2013-09-07 03:52:00,
2013-09-06 23:57:00,50.2,47.4,30.13,ESE,110,0.0,0.0,90,0.00,,CLR,0.00,VWS V14.01,2013-09-07 03:57:00,